createdAt,value
2022-11-23T00:01:10.490Z,165.65
2022-11-23T00:06:06.794Z,159.30
2022-11-23T00:11:03.017Z,166.95
2022-11-23T00:15:59.217Z,162.35
2022-11-23T00:20:55.402Z,158.60
2022-11-23T00:25:51.599Z,149.55
2022-11-23T00:30:50.918Z,152.43
2022-11-23T00:35:47.102Z,148.50
2022-11-23T00:40:43.303Z,148.80
2022-11-23T00:45:39.505Z,150.10
2022-11-23T00:50:35.730Z,145.60
2022-11-23T00:55:31.961Z,138.32
2022-11-23T01:00:28.141Z,136.90
2022-11-23T01:05:24.347Z,135.00
2022-11-23T01:10:20.801Z,136.93
2022-11-23T01:15:17.014Z,133.82
2022-11-23T01:20:13.240Z,132.68
2022-11-23T01:25:09.418Z,133.73
2022-11-23T01:30:05.998Z,126.57
2022-11-23T01:35:02.184Z,122.80
2022-11-23T01:39:58.381Z,126.03
2022-11-23T01:45:14.543Z,124.30
2022-11-23T01:50:10.768Z,123.00
2022-11-23T01:55:08.706Z,120.70
2022-11-23T02:00:05.209Z,115.68
2022-11-23T02:05:01.699Z,118.07
2022-11-23T02:09:58.017Z,121.85
2022-11-23T02:14:54.258Z,119.45
2022-11-23T02:20:02.718Z,123.28
2022-11-23T02:25:00.775Z,118.60
2022-11-23T02:29:57.148Z,120.20
2022-11-23T02:34:53.404Z,121.43
2022-11-23T02:39:51.090Z,124.40
2022-11-23T02:45:05.326Z,129.50
2022-11-23T02:50:01.548Z,129.05
2022-11-23T02:54:57.999Z,121.60
2022-11-23T02:59:54.211Z,123.60
2022-11-23T03:04:50.412Z,121.07
2022-11-23T03:09:46.651Z,121.15
2022-11-23T03:14:42.960Z,120.43
2022-11-23T03:19:39.189Z,122.70
2022-11-23T03:24:35.401Z,117.22
2022-11-23T03:29:31.917Z,115.72
2022-11-23T03:34:28.277Z,113.22
2022-11-23T03:39:24.536Z,120.20
2022-11-23T03:44:20.773Z,116.78
2022-11-23T03:49:17.356Z,119.20
2022-11-23T03:54:13.547Z,119.25
2022-11-23T03:59:12.349Z,116.88
2022-11-23T04:04:08.676Z,118.65
2022-11-23T04:09:04.906Z,117.07
2022-11-23T04:14:01.152Z,119.38
2022-11-23T04:18:57.411Z,114.75
2022-11-23T04:23:53.599Z,112.95
2022-11-23T04:28:49.805Z,118.63
2022-11-23T04:33:46.122Z,116.55
2022-11-23T04:38:42.374Z,114.35
2022-11-23T04:43:38.591Z,115.20
2022-11-23T04:48:34.781Z,110.97
2022-11-23T04:53:31.058Z,111.80
2022-11-23T04:58:31.601Z,112.32
2022-11-23T05:03:31.158Z,111.45
2022-11-23T05:08:27.532Z,108.05
2022-11-23T05:13:24.153Z,113.03
2022-11-23T05:18:20.363Z,107.50
2022-11-23T05:23:16.616Z,107.85
2022-11-23T05:28:39.206Z,109.55
2022-11-23T05:33:34.995Z,102.57
2022-11-23T05:38:31.170Z,94.38
2022-11-23T05:43:27.416Z,89.25
2022-11-23T05:48:23.594Z,92.38
2022-11-23T05:53:19.836Z,94.97
2022-11-23T05:58:16.114Z,97.25
2022-11-23T06:03:12.281Z,93.03
2022-11-23T06:08:08.469Z,102.35
2022-11-23T06:13:05.095Z,104.30
2022-11-23T06:18:01.617Z,102.93
2022-11-23T06:22:57.961Z,106.88
2022-11-23T06:27:57.761Z,108.30
2022-11-23T06:32:54.115Z,113.57
2022-11-23T06:37:54.442Z,113.55
2022-11-23T06:42:50.870Z,115.25
2022-11-23T06:47:47.060Z,115.95
2022-11-23T06:52:43.268Z,119.53
2022-11-23T06:57:39.461Z,113.70
2022-11-23T07:02:35.639Z,119.03
2022-11-23T07:07:32.181Z,117.15
2022-11-23T07:12:28.433Z,124.78
2022-11-23T07:17:24.761Z,123.03
2022-11-23T07:22:20.974Z,120.80
2022-11-23T07:27:17.237Z,123.90
2022-11-23T07:32:14.931Z,123.95
2022-11-23T07:37:11.111Z,119.75
2022-11-23T07:47:23.617Z,121.97
2022-11-23T07:52:19.826Z,117.72
2022-11-23T07:57:16.156Z,126.65
2022-11-23T08:02:14.161Z,122.53
2022-11-23T08:07:10.530Z,129.30
2022-11-23T08:12:06.933Z,125.78
2022-11-23T08:17:03.190Z,121.07
2022-11-23T08:21:59.357Z,121.55
2022-11-23T08:26:55.909Z,130.27
2022-11-23T08:31:52.267Z,115.25
2022-11-23T08:36:48.498Z,120.25
2022-11-23T08:41:45.039Z,118.28
2022-11-23T08:46:41.320Z,120.30
2022-11-23T08:51:37.535Z,117.50
2022-11-23T08:56:33.904Z,119.47
2022-11-23T09:01:30.163Z,118.15
2022-11-23T09:06:28.998Z,116.10
2022-11-23T09:11:26.234Z,113.15
2022-11-23T09:16:22.475Z,115.78
2022-11-23T09:21:18.757Z,109.20
2022-11-23T09:26:15.356Z,105.97
2022-11-23T09:31:11.573Z,102.60
2022-11-23T09:36:08.100Z,106.43
2022-11-23T09:41:16.648Z,98.22
2022-11-23T09:46:27.661Z,105.28
2022-11-23T09:51:23.927Z,104.63
2022-11-23T09:56:22.438Z,102.53
2022-11-23T10:01:18.861Z,92.13
2022-11-23T10:06:17.312Z,83.45
2022-11-23T10:11:32.153Z,78.10
2022-11-23T10:16:44.513Z,70.53
2022-11-23T10:21:51.185Z,64.37
2022-11-23T10:26:48.925Z,68.75
2022-11-23T10:31:46.829Z,68.93
2022-11-23T10:36:43.096Z,69.53
2022-11-23T10:41:39.291Z,71.15
2022-11-23T10:46:37.015Z,68.03
2022-11-23T10:51:33.561Z,64.70
2022-11-23T10:56:30.381Z,60.05
2022-11-23T11:01:27.292Z,57.50
2022-11-23T11:06:30.778Z,57.78
2022-11-23T11:11:28.589Z,52.38
2022-11-23T11:16:24.887Z,52.38
2022-11-23T11:21:22.661Z,54.00
2022-11-23T11:26:20.843Z,50.30
2022-11-23T11:31:30.028Z,55.38
2022-11-23T11:36:28.435Z,61.05
2022-11-23T11:41:27.431Z,60.28
2022-11-23T11:46:29.749Z,64.50
2022-11-23T11:51:35.601Z,64.95
2022-11-23T11:56:37.232Z,70.95
2022-11-23T12:01:35.949Z,69.25
2022-11-23T12:06:35.362Z,74.53
2022-11-23T12:11:32.076Z,83.22
2022-11-23T12:16:31.053Z,76.53
2022-11-23T12:21:42.243Z,81.45
2022-11-23T12:26:56.979Z,84.90
2022-11-23T12:32:11.885Z,70.05
2022-11-23T12:37:40.371Z,63.72
2022-11-23T12:42:45.201Z,70.03
2022-11-23T12:48:09.316Z,42.72
2022-11-23T12:53:20.595Z,37.33
2022-11-23T12:58:21.335Z,32.80
2022-11-23T13:03:26.862Z,31.50
2022-11-23T13:08:41.802Z,34.80
2022-11-23T13:13:49.200Z,37.42
2022-11-23T13:18:54.053Z,39.20
2022-11-23T13:23:50.276Z,43.30
2022-11-23T13:28:47.515Z,45.90
2022-11-23T13:33:45.170Z,51.80
2022-11-23T13:38:42.608Z,55.20
2022-11-23T13:43:38.910Z,56.95
2022-11-23T13:49:00.567Z,54.92
2022-11-23T13:54:04.411Z,54.80
2022-11-23T13:59:20.860Z,59.63
2022-11-23T14:04:22.398Z,56.95
2022-11-23T14:09:37.149Z,57.17
2022-11-23T14:14:42.019Z,54.60
2022-11-23T14:19:44.477Z,53.85
2022-11-23T14:24:43.403Z,53.42
2022-11-23T14:29:51.720Z,56.55
2022-11-23T14:35:17.077Z,56.38
2022-11-23T14:40:20.354Z,60.78
2022-11-23T14:45:17.006Z,62.88
2022-11-23T14:50:23.526Z,63.90
2022-11-23T14:55:21.635Z,65.07
2022-11-23T15:00:26.077Z,64.90
2022-11-23T15:05:25.955Z,69.32
2022-11-23T15:10:28.801Z,68.82
2022-11-23T15:15:26.274Z,76.47
2022-11-23T15:20:24.625Z,83.07
2022-11-23T15:25:21.513Z,85.18
2022-11-23T15:30:22.058Z,88.18
2022-11-23T15:35:18.380Z,87.43
2022-11-23T15:40:15.327Z,92.90
2022-11-23T15:45:30.133Z,95.72
2022-11-23T15:50:29.933Z,92.47
2022-11-23T15:55:29.685Z,94.22
2022-11-23T16:00:26.358Z,96.93
2022-11-23T16:05:23.389Z,107.90
2022-11-23T16:10:21.479Z,107.20
2022-11-23T16:15:41.427Z,111.90
2022-11-23T16:20:42.715Z,111.40
2022-11-23T16:25:38.890Z,109.32
2022-11-23T16:30:36.742Z,115.78
2022-11-23T16:35:32.996Z,115.88
2022-11-23T16:40:29.234Z,110.38
2022-11-23T16:45:25.581Z,110.70
2022-11-23T16:50:22.633Z,117.20
2022-11-23T16:55:18.835Z,118.25
2022-11-23T17:00:19.341Z,121.03
2022-11-23T17:05:16.305Z,123.10
2022-11-23T17:10:13.544Z,126.90
2022-11-23T17:15:11.746Z,120.35
2022-11-23T17:20:11.746Z,118.30
2022-11-23T17:25:14.251Z,115.97
2022-11-23T17:30:13.490Z,116.35
2022-11-23T17:35:10.768Z,122.88
2022-11-23T17:40:13.458Z,122.90
2022-11-23T17:50:08.583Z,124.63
2022-11-23T17:55:05.054Z,125.00
2022-11-23T18:00:03.481Z,132.40
2022-11-23T18:05:00.202Z,131.65
2022-11-23T18:09:56.485Z,135.98
2022-11-23T18:14:52.716Z,135.02
2022-11-23T18:19:48.944Z,136.80
2022-11-23T18:24:45.161Z,140.70
2022-11-23T18:29:41.387Z,140.73
2022-11-23T18:34:37.609Z,132.98
2022-11-23T18:39:34.790Z,134.45
2022-11-23T18:44:31.233Z,137.55
2022-11-23T18:49:27.792Z,134.98
2022-11-23T18:54:24.033Z,137.18
2022-11-23T18:59:49.844Z,139.20
2022-11-23T19:04:38.761Z,133.27
2022-11-23T19:09:35.536Z,135.63
2022-11-23T19:14:31.995Z,138.82
2022-11-23T19:19:28.267Z,140.05
2022-11-23T19:24:24.451Z,144.30
2022-11-23T19:29:23.725Z,142.80
2022-11-23T19:34:21.518Z,143.63
2022-11-23T19:39:17.703Z,137.98
2022-11-23T19:44:13.924Z,142.32
2022-11-23T19:49:10.255Z,140.15
2022-11-23T19:54:07.739Z,138.25
2022-11-23T19:59:03.998Z,139.38
2022-11-23T20:04:09.662Z,139.85
2022-11-23T20:09:07.882Z,140.10
2022-11-23T20:14:04.207Z,140.98
2022-11-23T20:19:01.783Z,141.48
2022-11-23T20:24:07.343Z,144.13
2022-11-23T20:29:05.053Z,145.40
2022-11-23T20:34:02.603Z,145.65
2022-11-23T20:39:03.129Z,142.02
2022-11-23T20:44:20.790Z,146.13
2022-11-23T20:49:17.239Z,139.50
2022-11-23T20:54:13.469Z,143.60
2022-11-23T20:59:11.744Z,144.95
2022-11-23T21:04:08.677Z,146.68
2022-11-23T21:09:04.900Z,142.98
2022-11-23T21:14:10.027Z,149.18
2022-11-23T21:19:09.800Z,153.60
2022-11-23T21:24:06.733Z,147.55
2022-11-23T21:29:04.097Z,158.68
2022-11-23T21:34:05.057Z,155.27
2022-11-23T21:39:02.038Z,155.93
2022-11-23T21:43:58.337Z,157.07
2022-11-23T21:48:56.286Z,161.77
2022-11-23T21:53:53.889Z,160.18
2022-11-23T21:58:50.524Z,163.05
2022-11-23T22:03:51.726Z,169.52
2022-11-23T22:08:51.997Z,169.35
2022-11-23T22:13:51.767Z,168.30
2022-11-23T22:18:53.993Z,171.85
2022-11-23T22:23:51.844Z,161.02
2022-11-23T22:28:49.019Z,165.75
2022-11-23T22:33:45.681Z,152.45
2022-11-23T22:38:42.181Z,149.05
2022-11-23T22:43:38.561Z,136.07
2022-11-23T22:48:38.646Z,129.07
2022-11-23T22:53:34.937Z,117.13
2022-11-23T22:58:31.518Z,116.60
2022-11-23T23:03:27.916Z,104.80
2022-11-23T23:08:24.869Z,101.40
2022-11-23T23:13:21.654Z,103.60
2022-11-23T23:18:18.545Z,92.03
2022-11-23T23:23:14.737Z,85.05
2022-11-23T23:28:10.946Z,86.13
2022-11-23T23:33:07.470Z,84.78
2022-11-23T23:38:04.421Z,81.10
2022-11-23T23:43:00.621Z,82.55
2022-11-23T23:47:57.443Z,73.70
2022-11-23T23:52:53.705Z,76.20
2022-11-23T23:57:49.892Z,77.20
